createdAt,value
2018-08-30T00:00:53.273Z,79.84
2018-08-30T00:03:20.441Z,80.45
2018-08-30T00:05:47.530Z,80.43
2018-08-30T00:08:14.736Z,79.72
2018-08-30T00:10:41.949Z,80.59
2018-08-30T00:13:09.093Z,80.41
2018-08-30T00:15:36.226Z,79.28
2018-08-30T00:18:03.404Z,79.59
2018-08-30T00:20:30.521Z,80.18
2018-08-30T00:22:57.830Z,80.51
2018-08-30T00:25:25.035Z,79.37
2018-08-30T00:27:52.229Z,79.40
2018-08-30T00:30:19.332Z,80.14
2018-08-30T00:32:46.428Z,80.38
2018-08-30T00:35:13.601Z,78.98
2018-08-30T00:37:40.689Z,78.93
2018-08-30T00:40:07.829Z,79.55
2018-08-30T00:42:34.926Z,80.13
2018-08-30T00:45:02.068Z,79.25
2018-08-30T00:47:29.162Z,79.70
2018-08-30T00:49:56.299Z,79.63
2018-08-30T00:52:23.405Z,80.03
2018-08-30T00:54:50.523Z,80.30
2018-08-30T00:57:18.092Z,81.46
2018-08-30T00:59:45.452Z,81.34
2018-08-30T01:02:12.557Z,80.11
2018-08-30T01:04:39.697Z,80.63
2018-08-30T01:07:06.836Z,80.59
2018-08-30T01:09:34.105Z,79.25
2018-08-30T01:12:01.246Z,80.24
2018-08-30T01:14:28.419Z,79.67
2018-08-30T01:16:55.551Z,80.12
2018-08-30T01:19:22.706Z,80.58
2018-08-30T01:21:49.900Z,80.07
2018-08-30T01:24:17.118Z,79.87
2018-08-30T01:26:44.419Z,80.27
2018-08-30T01:29:11.594Z,80.35
2018-08-30T01:31:38.759Z,80.28
2018-08-30T01:34:05.889Z,80.84
2018-08-30T01:36:33.052Z,81.85
2018-08-30T01:39:00.187Z,80.53
2018-08-30T01:41:27.338Z,80.65
2018-08-30T01:43:54.481Z,80.68
2018-08-30T01:46:21.610Z,80.55
2018-08-30T01:48:48.700Z,80.94
2018-08-30T01:51:15.840Z,81.20
2018-08-30T01:53:42.944Z,81.57
2018-08-30T01:56:10.049Z,81.05
2018-08-30T01:58:37.171Z,80.73
2018-08-30T02:01:04.449Z,80.84
2018-08-30T02:03:31.620Z,80.73
2018-08-30T02:05:58.766Z,80.13
2018-08-30T02:08:25.958Z,80.61
2018-08-30T02:10:53.145Z,80.95
2018-08-30T02:13:20.279Z,80.28
2018-08-30T02:15:47.402Z,80.88
2018-08-30T02:18:14.574Z,79.91
2018-08-30T02:20:41.689Z,79.58
2018-08-30T02:23:08.880Z,80.13
2018-08-30T02:25:35.979Z,80.02
2018-08-30T02:28:03.123Z,80.01
2018-08-30T02:30:30.208Z,80.36
2018-08-30T02:32:57.330Z,81.16
2018-08-30T02:35:24.441Z,81.19
2018-08-30T02:37:51.574Z,80.82
2018-08-30T02:40:18.666Z,81.18
2018-08-30T02:42:45.849Z,80.55
2018-08-30T02:45:12.968Z,80.58
2018-08-30T02:47:40.079Z,80.03
2018-08-30T02:50:07.194Z,79.54
2018-08-30T02:52:34.486Z,79.89
2018-08-30T02:55:01.638Z,79.95
2018-08-30T02:57:28.779Z,80.46
2018-08-30T02:59:55.901Z,80.28
2018-08-30T03:02:23.094Z,79.93
2018-08-30T03:04:50.229Z,80.33
2018-08-30T03:07:17.320Z,80.08
2018-08-30T03:09:44.456Z,79.68
2018-08-30T03:12:11.559Z,79.23
2018-08-30T03:14:38.682Z,79.00
2018-08-30T03:17:05.781Z,79.00
2018-08-30T03:19:32.932Z,79.18
2018-08-30T03:22:00.117Z,79.00
2018-08-30T03:24:27.267Z,79.82
2018-08-30T03:26:54.416Z,80.04
2018-08-30T03:29:21.626Z,79.47
2018-08-30T03:31:48.725Z,79.67
2018-08-30T03:34:16.513Z,80.46
2018-08-30T03:36:43.688Z,79.48
2018-08-30T03:39:10.828Z,80.17
2018-08-30T03:41:37.964Z,79.37
2018-08-30T03:44:05.081Z,79.71
2018-08-30T03:46:32.182Z,80.42
2018-08-30T03:48:59.298Z,80.49
2018-08-30T03:51:26.433Z,80.88
2018-08-30T03:53:53.534Z,81.18
2018-08-30T03:56:20.646Z,80.68
2018-08-30T03:58:47.751Z,81.04
2018-08-30T04:01:14.884Z,81.16
2018-08-30T04:03:42.160Z,81.95
2018-08-30T04:06:09.362Z,81.73
2018-08-30T04:08:36.512Z,81.70
2018-08-30T04:11:03.671Z,81.56
2018-08-30T04:13:30.803Z,82.32
2018-08-30T04:15:57.970Z,81.36
2018-08-30T04:18:25.118Z,81.02
2018-08-30T04:20:52.232Z,81.02
2018-08-30T04:23:19.386Z,80.35
2018-08-30T04:25:46.498Z,81.30
2018-08-30T04:28:13.656Z,81.41
2018-08-30T04:30:40.759Z,81.13
2018-08-30T04:33:07.918Z,80.57
2018-08-30T04:35:35.106Z,80.53
2018-08-30T04:38:02.281Z,80.22
2018-08-30T04:40:29.437Z,80.12
2018-08-30T04:42:56.678Z,80.16
2018-08-30T04:45:23.801Z,80.91
2018-08-30T04:47:50.970Z,80.19
2018-08-30T04:50:18.214Z,79.93
2018-08-30T04:52:45.281Z,79.97
2018-08-30T04:55:12.408Z,79.78
2018-08-30T04:57:39.547Z,80.47
2018-08-30T05:00:06.722Z,80.91
2018-08-30T05:02:33.885Z,80.13
2018-08-30T05:05:01.091Z,80.19
2018-08-30T05:07:29.022Z,80.71
2018-08-30T05:09:56.245Z,81.05
2018-08-30T05:12:23.353Z,80.19
2018-08-30T05:14:50.513Z,80.25
2018-08-30T05:17:17.629Z,79.38
2018-08-30T05:19:44.757Z,79.73
2018-08-30T05:22:11.939Z,79.67
2018-08-30T05:24:39.086Z,79.11
2018-08-30T05:27:06.266Z,78.94
2018-08-30T05:29:33.599Z,79.48
2018-08-30T05:32:00.730Z,80.15
2018-08-30T05:34:27.876Z,79.70
2018-08-30T05:36:55.685Z,78.78
2018-08-30T05:39:22.874Z,78.81
2018-08-30T05:41:50.014Z,79.29
2018-08-30T05:44:17.167Z,78.98
2018-08-30T05:46:44.416Z,78.83
2018-08-30T05:49:11.538Z,78.50
2018-08-30T05:51:38.782Z,78.71
2018-08-30T05:54:06.072Z,78.41
2018-08-30T05:56:33.265Z,78.66
2018-08-30T05:59:00.394Z,77.98
2018-08-30T06:01:27.645Z,77.87
2018-08-30T06:03:54.818Z,77.17
2018-08-30T06:06:22.015Z,76.47
2018-08-30T06:08:49.158Z,76.41
2018-08-30T06:11:16.313Z,76.51
2018-08-30T06:13:43.435Z,76.00
2018-08-30T06:16:10.641Z,76.62
2018-08-30T06:18:38.191Z,76.43
2018-08-30T06:21:05.708Z,76.66
2018-08-30T06:23:32.881Z,75.88
2018-08-30T06:26:00.060Z,76.34
2018-08-30T06:28:28.016Z,75.94
2018-08-30T06:30:55.529Z,76.14
2018-08-30T06:33:22.679Z,75.67
2018-08-30T06:38:23.789Z,75.98
2018-08-30T06:40:51.284Z,75.48
2018-08-30T06:43:18.717Z,74.58
2018-08-30T06:45:45.966Z,75.27
2018-08-30T06:48:13.520Z,74.66
2018-08-30T06:50:42.480Z,74.79
2018-08-30T06:53:09.695Z,74.10
2018-08-30T06:55:36.850Z,74.15
2018-08-30T06:58:03.995Z,74.19
2018-08-30T07:00:31.167Z,74.42
2018-08-30T07:02:58.357Z,74.43
2018-08-30T07:05:26.085Z,73.86
2018-08-30T07:07:53.414Z,73.43
2018-08-30T07:10:20.882Z,73.74
2018-08-30T07:12:48.107Z,73.20
2018-08-30T07:15:15.314Z,71.71
2018-08-30T07:17:42.610Z,71.92
2018-08-30T07:20:09.807Z,71.02
2018-08-30T07:22:37.460Z,70.64
2018-08-30T07:25:04.988Z,71.67
2018-08-30T07:27:32.169Z,70.60
2018-08-30T07:29:59.302Z,70.39
2018-08-30T07:32:26.801Z,71.15
2018-08-30T07:34:54.097Z,70.74
2018-08-30T07:37:21.134Z,71.08
2018-08-30T07:39:48.292Z,69.20
2018-08-30T07:42:15.455Z,68.05
2018-08-30T07:44:42.615Z,69.65
2018-08-30T07:47:09.817Z,69.56
2018-08-30T07:49:36.894Z,68.90
2018-08-30T07:52:04.029Z,69.15
2018-08-30T07:54:31.284Z,67.87
2018-08-30T07:56:58.370Z,67.20
2018-08-30T07:59:25.903Z,66.74
2018-08-30T08:01:53.061Z,66.49
2018-08-30T08:04:20.869Z,66.19
2018-08-30T08:06:48.037Z,65.90
2018-08-30T08:09:15.338Z,66.78
2018-08-30T08:11:42.459Z,66.49
2018-08-30T08:14:09.743Z,66.11
2018-08-30T08:16:36.884Z,66.91
2018-08-30T08:19:04.815Z,67.26
2018-08-30T08:21:31.981Z,65.75
2018-08-30T08:23:59.220Z,66.93
2018-08-30T08:26:26.347Z,67.12
2018-08-30T08:28:53.823Z,67.90
2018-08-30T08:31:21.122Z,67.88
2018-08-30T08:33:48.194Z,67.86
2018-08-30T08:36:15.369Z,68.68
2018-08-30T08:38:42.735Z,68.35
2018-08-30T08:41:09.973Z,68.44
2018-08-30T08:43:37.096Z,68.08
2018-08-30T08:46:04.252Z,68.29
2018-08-30T08:48:31.456Z,67.46
2018-08-30T08:50:58.633Z,64.43
2018-08-30T08:53:25.753Z,65.02
2018-08-30T08:55:52.876Z,63.73
2018-08-30T08:58:20.005Z,64.02
2018-08-30T09:00:47.128Z,63.86
2018-08-30T09:03:14.251Z,64.23
2018-08-30T09:05:41.474Z,64.05
2018-08-30T09:08:08.701Z,64.48
2018-08-30T09:10:35.901Z,63.96
2018-08-30T09:13:03.099Z,63.00
2018-08-30T09:15:30.345Z,63.15
2018-08-30T09:17:57.585Z,62.28
2018-08-30T09:20:24.723Z,61.69
2018-08-30T09:22:52.302Z,62.01
2018-08-30T09:25:19.671Z,62.66
2018-08-30T09:27:47.757Z,62.85
2018-08-30T09:30:14.990Z,63.48
2018-08-30T09:32:42.135Z,63.27
2018-08-30T09:35:09.308Z,63.53
2018-08-30T09:37:36.556Z,63.94
2018-08-30T09:40:03.722Z,63.85
2018-08-30T09:42:30.912Z,63.60
2018-08-30T09:44:58.072Z,64.27
2018-08-30T09:47:25.213Z,64.05
2018-08-30T09:49:52.525Z,63.35
2018-08-30T09:52:19.573Z,63.14
2018-08-30T09:54:46.713Z,63.73
2018-08-30T09:57:13.994Z,63.89
2018-08-30T09:59:41.039Z,64.12
2018-08-30T10:02:13.802Z,65.02
2018-08-30T10:04:41.071Z,64.64
2018-08-30T10:07:08.229Z,64.40
2018-08-30T10:09:35.452Z,63.38
2018-08-30T10:12:02.684Z,63.01
2018-08-30T10:14:30.848Z,61.80
2018-08-30T10:16:58.067Z,62.34
2018-08-30T10:19:25.206Z,61.02
2018-08-30T10:21:52.416Z,60.20
2018-08-30T10:24:19.611Z,60.36
2018-08-30T10:26:46.757Z,58.68
2018-08-30T10:29:13.885Z,58.82
2018-08-30T10:31:41.122Z,58.05
2018-08-30T10:34:08.211Z,58.97
2018-08-30T10:36:35.430Z,58.76
2018-08-30T10:39:04.368Z,59.31
2018-08-30T10:41:31.594Z,59.98
2018-08-30T10:43:58.824Z,61.37
2018-08-30T10:46:25.976Z,61.37
2018-08-30T10:48:53.106Z,61.91
2018-08-30T10:51:20.284Z,61.83
2018-08-30T10:53:47.509Z,61.39
2018-08-30T10:56:14.834Z,61.50
2018-08-30T10:58:42.876Z,60.53
2018-08-30T11:01:10.018Z,60.79
2018-08-30T11:03:37.332Z,60.25
2018-08-30T11:06:04.681Z,61.91
2018-08-30T11:08:31.945Z,60.64
2018-08-30T11:10:59.185Z,59.59
2018-08-30T11:13:26.425Z,58.74
2018-08-30T11:15:53.572Z,58.40
2018-08-30T11:18:20.791Z,57.25
2018-08-30T11:20:47.938Z,58.07
2018-08-30T11:23:15.120Z,56.33
2018-08-30T11:25:42.687Z,57.19
2018-08-30T11:28:10.159Z,55.56
2018-08-30T11:30:37.322Z,55.21
2018-08-30T11:33:04.738Z,55.10
2018-08-30T11:35:31.945Z,55.47
2018-08-30T11:37:59.147Z,54.20
2018-08-30T11:40:26.290Z,53.27
2018-08-30T11:42:53.482Z,52.48
2018-08-30T11:45:20.806Z,50.19
2018-08-30T11:47:47.945Z,49.64
2018-08-30T11:50:15.186Z,49.11
2018-08-30T11:52:42.400Z,49.89
2018-08-30T11:55:09.542Z,49.25
2018-08-30T11:57:37.959Z,50.80
2018-08-30T12:00:05.746Z,48.51
2018-08-30T12:02:33.137Z,50.08
2018-08-30T12:05:00.333Z,49.64
2018-08-30T12:07:27.588Z,50.85
2018-08-30T12:09:56.844Z,49.80
2018-08-30T12:12:22.562Z,50.25
2018-08-30T12:14:50.471Z,49.66
2018-08-30T12:17:17.736Z,48.63
2018-08-30T12:19:44.909Z,49.16
2018-08-30T12:22:12.394Z,49.67
2018-08-30T12:24:40.053Z,50.06
2018-08-30T12:27:07.292Z,50.15
2018-08-30T12:29:34.528Z,50.70
2018-08-30T12:32:03.387Z,50.93
2018-08-30T12:34:30.673Z,50.79
2018-08-30T12:36:57.813Z,51.09
2018-08-30T12:39:25.466Z,51.31
2018-08-30T12:41:52.909Z,49.98
2018-08-30T12:44:20.069Z,51.12
2018-08-30T12:46:47.319Z,50.93
2018-08-30T12:49:14.575Z,50.69
2018-08-30T12:51:42.605Z,51.05
2018-08-30T12:54:09.734Z,52.12
2018-08-30T12:56:36.881Z,52.19
2018-08-30T12:59:09.766Z,52.01
2018-08-30T13:01:36.905Z,52.00
2018-08-30T13:04:04.594Z,51.83
2018-08-30T13:06:32.141Z,51.68
2018-08-30T13:08:59.513Z,52.24
2018-08-30T13:11:26.598Z,52.27
2018-08-30T13:13:53.867Z,51.05
2018-08-30T13:16:21.411Z,52.06
2018-08-30T13:18:48.548Z,51.70
2018-08-30T13:21:15.890Z,52.11
2018-08-30T13:23:43.654Z,51.87
2018-08-30T13:26:11.324Z,51.79
2018-08-30T13:28:38.741Z,51.84
2018-08-30T13:31:06.007Z,51.51
2018-08-30T13:33:33.176Z,52.40
2018-08-30T13:36:00.598Z,53.44
2018-08-30T13:38:28.051Z,52.65
2018-08-30T13:40:55.295Z,53.51
2018-08-30T13:43:22.226Z,53.30
2018-08-30T13:45:49.407Z,52.41
2018-08-30T13:48:16.461Z,53.02
2018-08-30T13:50:43.913Z,52.72
2018-08-30T13:53:11.318Z,53.57
2018-08-30T13:55:38.595Z,53.72
2018-08-30T13:58:06.843Z,53.17
2018-08-30T14:00:34.129Z,53.39
2018-08-30T14:03:00.983Z,53.06
2018-08-30T14:05:28.094Z,52.72
2018-08-30T14:07:55.421Z,53.13
2018-08-30T14:10:23.056Z,52.56
2018-08-30T14:12:50.204Z,54.00
2018-08-30T14:15:17.478Z,53.74
2018-08-30T14:17:44.284Z,53.76
2018-08-30T14:20:11.521Z,53.54
2018-08-30T14:22:40.610Z,53.43
2018-08-30T14:25:09.273Z,52.22
2018-08-30T14:27:36.503Z,52.53
2018-08-30T14:30:03.787Z,52.12
2018-08-30T14:32:31.023Z,52.09
2018-08-30T14:34:58.230Z,50.57
2018-08-30T14:37:25.740Z,50.75
2018-08-30T14:39:53.473Z,51.12
2018-08-30T14:42:20.756Z,51.63
2018-08-30T14:44:48.091Z,52.35
2018-08-30T14:47:15.264Z,52.45
2018-08-30T14:49:42.412Z,52.51
2018-08-30T14:52:09.656Z,54.98
2018-08-30T14:54:36.872Z,56.05
2018-08-30T14:57:04.319Z,56.14
2018-08-30T14:59:31.541Z,57.78
2018-08-30T15:01:58.662Z,58.44
2018-08-30T15:04:25.876Z,58.13
2018-08-30T15:06:53.049Z,57.33
2018-08-30T15:09:20.411Z,57.63
2018-08-30T15:11:47.696Z,58.15
2018-08-30T15:14:14.954Z,57.40
2018-08-30T15:16:42.200Z,57.06
2018-08-30T15:19:11.303Z,57.85
2018-08-30T15:21:38.455Z,57.08
2018-08-30T15:24:05.712Z,58.31
2018-08-30T15:26:32.939Z,57.86
2018-08-30T15:29:00.172Z,58.70
2018-08-30T15:31:27.388Z,58.80
2018-08-30T15:33:54.676Z,58.79
2018-08-30T15:36:22.221Z,59.41
2018-08-30T15:38:49.314Z,59.20
2018-08-30T15:41:16.623Z,59.00
2018-08-30T15:43:43.877Z,59.42
2018-08-30T15:46:11.381Z,59.88
2018-08-30T15:48:38.781Z,60.34
2018-08-30T15:51:05.911Z,60.49
2018-08-30T15:53:33.347Z,60.66
2018-08-30T15:56:01.193Z,60.84
2018-08-30T15:58:28.374Z,61.61
2018-08-30T16:00:55.546Z,61.08
2018-08-30T16:03:22.710Z,60.82
2018-08-30T16:05:49.830Z,61.10
2018-08-30T16:08:17.010Z,61.23
2018-08-30T16:10:44.134Z,60.26
2018-08-30T16:13:11.566Z,58.47
2018-08-30T16:15:38.630Z,56.41
2018-08-30T16:20:40.191Z,56.37
2018-08-30T16:23:14.589Z,56.82
2018-08-30T16:25:42.073Z,57.74
2018-08-30T16:28:10.091Z,58.07
2018-08-30T16:30:37.300Z,58.82
2018-08-30T16:33:04.389Z,58.98
2018-08-30T16:35:31.591Z,59.09
2018-08-30T16:37:58.790Z,58.64
2018-08-30T16:40:25.954Z,56.65
2018-08-30T16:42:53.145Z,54.22
2018-08-30T16:45:20.341Z,53.07
2018-08-30T16:47:47.544Z,54.14
2018-08-30T16:50:14.763Z,58.83
2018-08-30T16:52:42.099Z,59.52
2018-08-30T16:55:09.331Z,59.53
2018-08-30T16:57:36.571Z,58.55
2018-08-30T17:00:03.851Z,60.04
2018-08-30T17:02:31.006Z,59.90
2018-08-30T17:04:58.758Z,60.34
2018-08-30T17:07:26.010Z,59.64
2018-08-30T17:09:53.170Z,59.42
2018-08-30T17:12:20.530Z,60.64
2018-08-30T17:14:47.759Z,60.88
2018-08-30T17:17:15.073Z,61.26
2018-08-30T17:19:42.114Z,61.40
2018-08-30T17:22:09.477Z,60.49
2018-08-30T17:24:36.624Z,60.38
2018-08-30T17:27:03.877Z,61.26
2018-08-30T17:29:31.044Z,61.55
2018-08-30T17:31:58.202Z,61.88
2018-08-30T17:34:25.398Z,62.52
2018-08-30T17:36:52.692Z,61.97
2018-08-30T17:39:19.852Z,61.87
2018-08-30T17:41:47.094Z,61.92
2018-08-30T17:44:14.758Z,61.80
2018-08-30T17:46:41.948Z,62.15
2018-08-30T17:49:09.135Z,61.93
2018-08-30T17:51:36.376Z,60.58
2018-08-30T17:54:03.582Z,61.06
2018-08-30T17:56:30.819Z,60.73
2018-08-30T17:59:00.366Z,59.41
2018-08-30T18:01:27.649Z,59.57
2018-08-30T18:03:54.707Z,60.92
2018-08-30T18:06:21.853Z,61.05
2018-08-30T18:08:49.235Z,62.46
2018-08-30T18:11:16.246Z,63.21
2018-08-30T18:13:43.422Z,63.67
2018-08-30T18:16:10.545Z,63.89
2018-08-30T18:18:37.781Z,64.37
2018-08-30T18:21:04.854Z,65.42
2018-08-30T18:23:32.171Z,65.68
2018-08-30T18:25:59.343Z,65.68
2018-08-30T18:28:26.527Z,65.58
2018-08-30T18:30:53.654Z,66.81
2018-08-30T18:33:20.838Z,66.40
2018-08-30T18:35:47.994Z,65.94
2018-08-30T18:38:15.595Z,65.83
2018-08-30T18:40:42.876Z,66.56
2018-08-30T18:43:10.077Z,66.95
2018-08-30T18:45:37.251Z,66.48
2018-08-30T18:48:04.485Z,67.39
2018-08-30T18:50:31.691Z,66.78
2018-08-30T18:52:58.875Z,66.27
2018-08-30T18:55:26.037Z,67.37
2018-08-30T18:57:53.295Z,67.01
2018-08-30T19:00:20.572Z,67.63
2018-08-30T19:02:48.108Z,67.79
2018-08-30T19:05:15.310Z,67.68
2018-08-30T19:07:42.458Z,68.36
2018-08-30T19:10:09.993Z,67.92
2018-08-30T19:12:37.238Z,68.38
2018-08-30T19:15:10.036Z,67.81
2018-08-30T19:17:42.985Z,67.87
2018-08-30T19:20:10.181Z,68.22
2018-08-30T19:22:37.317Z,67.96
2018-08-30T19:25:10.142Z,67.75
2018-08-30T19:27:37.314Z,67.73
2018-08-30T19:30:10.252Z,67.53
2018-08-30T19:32:37.403Z,66.44
2018-08-30T19:35:10.493Z,66.95
2018-08-30T19:37:37.691Z,67.96
2018-08-30T19:40:08.000Z,67.84
2018-08-30T19:42:35.326Z,68.04
2018-08-30T19:45:02.432Z,67.60
2018-08-30T19:47:29.627Z,67.75
2018-08-30T19:49:56.811Z,68.43
2018-08-30T19:52:24.057Z,69.14
2018-08-30T19:54:51.253Z,69.27
2018-08-30T19:57:18.516Z,69.95
2018-08-30T19:59:45.666Z,70.76
2018-08-30T20:02:12.817Z,69.49
2018-08-30T20:04:40.001Z,70.65
2018-08-30T20:07:07.155Z,70.43
2018-08-30T20:09:34.601Z,70.72
2018-08-30T20:12:01.796Z,71.26
2018-08-30T20:14:28.941Z,72.35
2018-08-30T20:16:56.120Z,72.75
2018-08-30T20:19:23.565Z,71.91
2018-08-30T20:21:50.727Z,72.04
2018-08-30T20:24:17.850Z,71.95
2018-08-30T20:26:45.188Z,70.92
2018-08-30T20:29:12.498Z,69.29
2018-08-30T20:31:39.669Z,68.12
2018-08-30T20:34:06.834Z,67.90
2018-08-30T20:36:34.023Z,67.89
2018-08-30T20:39:01.214Z,68.56
2018-08-30T20:41:28.454Z,68.28
2018-08-30T20:43:55.658Z,67.79
2018-08-30T20:46:22.852Z,68.15
2018-08-30T20:48:50.042Z,68.50
2018-08-30T20:51:17.183Z,68.76
2018-08-30T20:53:44.387Z,68.93
2018-08-30T20:56:11.585Z,69.15
2018-08-30T20:58:38.761Z,68.76
2018-08-30T21:01:05.874Z,69.00
2018-08-30T21:03:33.050Z,68.94
2018-08-30T21:06:00.372Z,68.46
2018-08-30T21:08:27.526Z,68.49
2018-08-30T21:10:54.665Z,68.35
2018-08-30T21:13:21.796Z,69.07
2018-08-30T21:15:49.033Z,68.98
2018-08-30T21:18:16.126Z,70.06
2018-08-30T21:20:43.274Z,70.78
2018-08-30T21:23:10.456Z,69.32
2018-08-30T21:25:37.598Z,69.80
2018-08-30T21:28:05.017Z,69.85
2018-08-30T21:30:32.278Z,70.06
2018-08-30T21:32:59.448Z,70.78
2018-08-30T21:35:26.689Z,69.91
2018-08-30T21:37:54.471Z,70.50
2018-08-30T21:40:21.642Z,69.75
2018-08-30T21:42:48.786Z,70.21
2018-08-30T21:45:16.085Z,69.98
2018-08-30T21:47:43.180Z,70.53
2018-08-30T21:50:10.376Z,70.70
2018-08-30T21:52:37.669Z,70.93
2018-08-30T21:55:05.110Z,71.17
2018-08-30T21:57:32.342Z,71.37
2018-08-30T21:59:59.505Z,70.85
2018-08-30T22:02:26.741Z,70.84
2018-08-30T22:04:53.828Z,71.08
2018-08-30T22:07:20.971Z,71.36
2018-08-30T22:09:48.146Z,71.63
2018-08-30T22:12:15.437Z,71.06
2018-08-30T22:14:42.588Z,70.36
2018-08-30T22:17:09.760Z,70.10
2018-08-30T22:19:36.890Z,70.49
2018-08-30T22:22:04.082Z,70.54
2018-08-30T22:24:31.220Z,70.24
2018-08-30T22:26:58.350Z,70.52
2018-08-30T22:29:25.612Z,70.23
2018-08-30T22:31:52.752Z,70.16
2018-08-30T22:34:19.888Z,70.05
2018-08-30T22:36:47.269Z,70.69
2018-08-30T22:39:14.542Z,71.20
2018-08-30T22:41:41.729Z,70.78
2018-08-30T22:44:08.956Z,71.06
2018-08-30T22:46:36.167Z,71.48
2018-08-30T22:49:03.437Z,71.24
2018-08-30T22:51:30.622Z,71.53
2018-08-30T22:53:57.810Z,71.76
2018-08-30T22:56:25.026Z,72.76
2018-08-30T22:58:52.292Z,72.93
2018-08-30T23:01:19.675Z,73.08
2018-08-30T23:03:46.822Z,73.42
2018-08-30T23:06:13.947Z,73.75
2018-08-30T23:08:41.085Z,73.12
2018-08-30T23:11:08.197Z,73.69
2018-08-30T23:13:35.396Z,73.47
2018-08-30T23:16:02.604Z,73.68
2018-08-30T23:18:29.759Z,74.22
2018-08-30T23:20:56.963Z,75.25
2018-08-30T23:23:24.077Z,74.13
2018-08-30T23:25:51.249Z,73.28
2018-08-30T23:28:18.395Z,73.32
2018-08-30T23:30:45.648Z,73.41
2018-08-30T23:33:12.793Z,73.32
2018-08-30T23:35:40.016Z,73.33
2018-08-30T23:38:07.442Z,73.88
2018-08-30T23:40:34.776Z,73.49
2018-08-30T23:43:01.899Z,73.62
2018-08-30T23:45:29.094Z,73.68
2018-08-30T23:47:56.201Z,74.07
2018-08-30T23:50:23.338Z,73.94
2018-08-30T23:52:50.444Z,74.50
2018-08-30T23:55:17.594Z,74.51
2018-08-30T23:57:56.494Z,73.68
